Time;durP1;ratioP1;P1;durP2;ratioP2;P2;SDS_P1;SDS_P2;PMS_P1;PMS_P2;Temp;Humidity;BMP_temperature;BMP_pressure;BME280_temperature;BME280_humidity;BME280_pressure;Samples;Min_cycle;Max_cycle;Signal;HPM_P1;HPM_P2
2022/09/24 00:01:28;;;;;;;5.35;1.70;;;;;;;11.68;100.00;101285.63;4934979;29;20755;-84
2022/09/24 00:04:01;;;;;;;8.05;1.73;;;;;;;11.65;100.00;101290.97;4934203;29;20841;-84
2022/09/24 00:06:30;;;;;;;3.83;1.40;;;;;;;11.74;100.00;101298.56;4934574;29;20052;-84
2022/09/24 00:08:56;;;;;;;3.95;1.52;;;;;;;11.64;100.00;101279.63;4934667;29;20051;-84
2022/09/24 00:11:26;;;;;;;4.20;1.52;;;;;;;11.68;100.00;101293.50;4927135;29;20055;-84
2022/09/24 00:13:55;;;;;;;4.18;1.30;;;;;;;11.59;100.00;101287.63;4934336;29;20047;-84
2022/09/24 00:16:24;;;;;;;5.07;1.17;;;;;;;11.69;100.00;101295.22;4934099;29;20110;-83
2022/09/24 00:18:52;;;;;;;3.28;1.33;;;;;;;11.65;100.00;101275.22;4934451;29;20052;-84
2022/09/24 00:21:22;;;;;;;4.50;1.10;;;;;;;11.69;100.00;101282.09;4935034;29;20394;-84
2022/09/24 00:23:52;;;;;;;3.83;1.40;;;;;;;11.55;100.00;101282.56;4950032;28;20051;-83
2022/09/24 00:29:06;;;;;;;2.85;1.10;;;;;;;11.49;100.00;101278.38;4935916;29;20545;-83
2022/09/24 00:31:34;;;;;;;6.13;1.60;;;;;;;11.45;100.00;101281.13;4934415;29;20055;-83
2022/09/24 00:34:01;;;;;;;6.68;1.38;;;;;;;11.40;100.00;101294.38;4935431;29;20048;-83
2022/09/24 00:36:28;;;;;;;4.85;1.40;;;;;;;11.22;100.00;101269.63;4934232;29;20533;-83
2022/09/24 00:38:57;;;;;;;5.95;1.70;;;;;;;11.29;100.00;101294.72;4935889;29;20051;-84
2022/09/24 00:41:30;;;;;;;3.58;1.30;;;;;;;11.27;100.00;101304.41;4934399;29;20672;-84
2022/09/24 00:43:57;;;;;;;4.53;1.50;;;;;;;10.88;100.00;101261.97;4934688;29;20482;-83
2022/09/24 00:46:35;;;;;;;4.75;1.30;;;;;;;10.77;100.00;101257.06;4935488;29;20497;-83
2022/09/24 00:49:19;;;;;;;4.65;1.40;;;;;;;11.11;100.00;101297.94;4950158;28;20062;-83
2022/09/24 00:51:49;;;;;;;4.55;1.50;;;;;;;11.03;100.00;101303.44;4929372;29;20055;-83
2022/09/24 00:54:23;;;;;;;8.27;1.30;;;;;;;10.90;100.00;101295.06;4950317;29;20074;-83
2022/09/24 00:56:51;;;;;;;6.53;1.30;;;;;;;10.98;100.00;101293.06;4933841;29;20055;-84
2022/09/24 00:59:22;;;;;;;3.97;1.25;;;;;;;11.06;100.00;101316.41;4935843;29;20601;-84
2022/09/24 01:01:52;;;;;;;4.57;1.30;;;;;;;10.88;100.00;101296.88;4935854;29;20054;-83
2022/09/24 01:04:20;;;;;;;5.07;1.42;;;;;;;10.78;100.00;101313.75;4934537;29;20039;-81
2022/09/24 01:06:48;;;;;;;5.15;1.52;;;;;;;10.79;100.00;101318.09;4934986;29;20107;-84
2022/09/24 01:09:17;;;;;;;5.25;1.42;;;;;;;10.70;100.00;101303.50;4948731;29;20482;-84
2022/09/24 01:12:06;;;;;;;3.22;1.20;;;;;;;10.82;100.00;101320.66;4933437;29;20063;-84
2022/09/24 01:14:42;;;;;;;3.38;0.90;;;;;;;10.89;100.00;101311.69;4927554;29;20102;-84
2022/09/24 01:17:29;;;;;;;3.42;1.27;;;;;;;10.87;100.00;101315.25;4933997;29;20103;-84
2022/09/24 01:20:15;;;;;;;4.82;1.25;;;;;;;10.80;100.00;101317.19;4933853;29;20067;-84
2022/09/24 01:22:54;;;;;;;4.28;1.20;;;;;;;10.92;100.00;101316.81;4933516;29;20059;-83
2022/09/24 01:25:29;;;;;;;2.65;1.17;;;;;;;10.98;100.00;101319.28;4926690;29;20052;-83
2022/09/24 01:28:18;;;;;;;2.58;1.00;;;;;;;10.94;100.00;101322.03;4937829;28;20052;-84
2022/09/24 01:30:49;;;;;;;5.32;1.27;;;;;;;10.71;100.00;101312.22;4924424;29;20048;-83
2022/09/24 01:33:21;;;;;;;6.38;1.45;;;;;;;10.77;100.00;101312.91;4945823;29;20047;-83
2022/09/24 01:35:54;;;;;;;2.95;1.35;;;;;;;10.73;100.00;101308.66;4933249;29;20442;-84
2022/09/24 01:38:24;;;;;;;2.70;1.17;;;;;;;10.73;100.00;101308.66;4930298;29;20056;-83
2022/09/24 01:40:54;;;;;;;4.63;1.10;;;;;;;10.70;100.00;101318.38;4928615;29;20055;-83
2022/09/24 01:43:24;;;;;;;3.58;1.13;;;;;;;10.66;100.00;101316.72;4933704;29;20542;-83
2022/09/24 01:45:51;;;;;;;5.75;1.20;;;;;;;10.60;100.00;101308.16;4949073;29;20107;-83
2022/09/24 01:48:20;;;;;;;4.15;0.93;;;;;;;10.60;100.00;101312.53;4932046;29;20052;-83
2022/09/24 01:51:01;;;;;;;2.00;0.90;;;;;;;10.30;100.00;101278.41;4949319;29;20055;-84
2022/09/24 01:53:39;;;;;;;2.70;1.00;;;;;;;10.44;100.00;101302.47;4933337;29;20111;-83
2022/09/24 01:56:14;;;;;;;3.10;1.20;;;;;;;10.42;100.00;101317.38;4938417;28;20055;-83
2022/09/24 01:58:50;;;;;;;3.05;1.08;;;;;;;10.23;100.00;101300.44;4933604;29;20490;-84
2022/09/24 02:01:23;;;;;;;2.88;1.10;;;;;;;10.30;100.00;101322.91;4933293;29;20494;-83
2022/09/24 02:04:05;;;;;;;10.50;2.38;;;;;;;10.19;100.00;101311.88;4934223;29;20043;-83
2022/09/24 02:06:37;;;;;;;6.60;1.70;;;;;;;10.23;100.00;101308.28;4933236;29;20051;-83
2022/09/24 02:09:04;;;;;;;5.43;1.30;;;;;;;10.03;100.00;101282.66;4930814;29;20048;-83
2022/09/24 02:11:36;;;;;;;7.35;1.30;;;;;;;9.99;100.00;101279.25;4922152;29;20076;-82
2022/09/24 02:14:08;;;;;;;3.80;1.33;;;;;;;9.96;100.00;101268.88;4932871;29;20048;-83
2022/09/24 02:16:40;;;;;;;5.43;1.30;;;;;;;10.21;100.00;101304.84;4932871;29;20052;-83
2022/09/24 02:19:24;;;;;;;5.35;1.10;;;;;;;9.95;100.00;101271.53;4934005;29;20051;-83
2022/09/24 02:21:51;;;;;;;4.32;1.38;;;;;;;10.22;100.00;101315.28;4933182;29;20147;-81
2022/09/24 02:24:49;;;;;;;4.75;1.10;;;;;;;10.38;100.00;101321.00;4948929;28;20043;-83
2022/09/24 02:27:17;;;;;;;3.38;1.30;;;;;;;10.40;100.00;101308.72;4931807;29;20141;-83
2022/09/24 02:29:45;;;;;;;3.35;1.30;;;;;;;10.30;100.00;101311.59;4933313;29;20107;-82
2022/09/24 02:32:17;;;;;;;3.42;1.20;;;;;;;10.27;100.00;101299.47;4932636;29;20052;-82
2022/09/24 02:34:52;;;;;;;5.13;1.20;;;;;;;10.25;100.00;101309.09;4934721;29;20063;-83
2022/09/24 02:37:22;;;;;;;4.32;1.40;;;;;;;9.98;100.00;101313.31;4932104;29;20553;-83
2022/09/24 02:39:50;;;;;;;4.75;1.40;;;;;;;9.93;100.00;101329.09;4929305;29;20055;-83
2022/09/24 02:42:18;;;;;;;7.57;1.30;;;;;;;10.07;100.00;101313.94;4931977;29;20379;-83
2022/09/24 02:44:46;;;;;;;5.80;1.55;;;;;;;10.11;100.00;101332.16;4936626;29;20446;-84
2022/09/24 02:47:13;;;;;;;4.55;1.27;;;;;;;10.14;100.00;101332.09;4936833;29;20086;-83
2022/09/24 02:49:40;;;;;;;2.42;1.00;;;;;;;9.94;100.00;101316.91;4936360;29;20106;-84
2022/09/24 02:52:06;;;;;;;3.55;1.10;;;;;;;9.92;100.00;101331.78;4936377;29;20060;-84
2022/09/24 02:54:33;;;;;;;6.60;1.20;;;;;;;9.66;100.00;101312.38;4936073;29;20056;-84
2022/09/24 02:57:00;;;;;;;3.35;1.13;;;;;;;9.79;100.00;101342.56;4936306;29;20047;-83
2022/09/24 02:59:26;;;;;;;3.05;1.27;;;;;;;9.73;100.00;101342.69;4936827;29;20063;-84
2022/09/24 03:01:53;;;;;;;4.13;1.30;;;;;;;9.68;100.00;101342.81;4936358;29;20060;-84
2022/09/24 03:04:20;;;;;;;2.97;1.30;;;;;;;9.62;100.00;101352.56;4935721;29;20047;-83
2022/09/24 03:06:47;;;;;;;4.30;1.27;;;;;;;9.51;100.00;101365.88;4935757;29;20052;-83
2022/09/24 03:09:14;;;;;;;3.15;1.20;;;;;;;8.79;100.00;101286.50;4934784;29;20585;-83
2022/09/24 03:11:41;;;;;;;3.97;1.33;;;;;;;9.07;100.00;101332.00;4937325;29;20091;-83
2022/09/24 03:14:07;;;;;;;6.00;1.40;;;;;;;8.84;100.00;101323.81;4935945;29;20118;-83
2022/09/24 03:16:34;;;;;;;2.92;1.40;;;;;;;9.22;100.00;101359.53;4935651;29;20059;-83
2022/09/24 03:19:01;;;;;;;7.32;1.35;;;;;;;9.06;100.00;101334.66;4935982;29;20680;-83
2022/09/24 03:21:28;;;;;;;4.00;1.20;;;;;;;9.22;100.00;101346.47;4936430;29;20463;-83
2022/09/24 03:23:55;;;;;;;5.20;1.20;;;;;;;9.34;100.00;101350.56;4936639;29;20511;-83
2022/09/24 03:26:22;;;;;;;3.05;1.10;;;;;;;9.49;100.00;101351.97;4936742;29;20090;-83
2022/09/24 03:28:48;;;;;;;1.70;1.00;;;;;;;9.31;100.00;101335.84;4936607;29;20475;-84
2022/09/24 03:31:15;;;;;;;4.28;1.27;;;;;;;9.48;100.00;101353.72;4936324;29;20043;-83
2022/09/24 03:33:45;;;;;;;7.03;1.20;;;;;;;9.63;100.00;101369.94;4924284;29;20048;-84
2022/09/24 03:36:24;;;;;;;4.13;1.60;;;;;;;9.80;100.00;101375.63;4934786;29;20052;-83
2022/09/24 03:38:55;;;;;;;5.38;1.30;;;;;;;9.87;100.00;101365.91;4951256;29;20055;-84
2022/09/24 03:41:24;;;;;;;2.00;0.93;;;;;;;9.99;100.00;101360.38;4935888;29;20044;-83
2022/09/24 03:43:51;;;;;;;4.00;1.30;;;;;;;9.77;100.00;101357.41;4936607;29;20056;-84
2022/09/24 03:46:18;;;;;;;2.47;1.10;;;;;;;9.83;100.00;101366.88;4935498;29;20446;-84
2022/09/24 03:48:46;;;;;;;3.40;1.10;;;;;;;9.69;100.00;101364.59;4935444;29;20056;-84
2022/09/24 03:51:17;;;;;;;4.50;1.20;;;;;;;9.56;100.00;101352.69;4930375;29;20056;-83
2022/09/24 03:53:44;;;;;;;3.75;1.10;;;;;;;9.55;100.00;101346.63;4934777;29;20048;-83
2022/09/24 03:56:12;;;;;;;3.55;1.10;;;;;;;9.72;100.00;101359.28;4931254;29;20585;-84
2022/09/24 03:58:40;;;;;;;4.28;1.05;;;;;;;9.72;100.00;101376.72;4951364;29;20051;-84
2022/09/24 04:01:09;;;;;;;3.83;1.20;;;;;;;9.61;100.00;101375.22;4934248;29;20040;-84
2022/09/24 04:03:36;;;;;;;3.38;1.08;;;;;;;9.65;100.00;101366.41;4936439;29;20123;-84
2022/09/24 04:06:03;;;;;;;3.88;1.10;;;;;;;9.42;100.00;101373.91;4949793;28;20103;-84
2022/09/24 04:08:31;;;;;;;4.63;1.20;;;;;;;9.61;100.00;101380.44;4935163;29;20051;-83
2022/09/24 04:10:58;;;;;;;4.82;1.05;;;;;;;9.54;100.00;101371.03;4923357;29;20132;-84
2022/09/24 04:13:25;;;;;;;3.15;1.00;;;;;;;9.67;100.00;101382.94;4936401;29;20701;-84
2022/09/24 04:15:52;;;;;;;3.35;1.05;;;;;;;9.79;100.00;101368.72;4935614;29;20103;-84
2022/09/24 04:18:20;;;;;;;4.43;1.13;;;;;;;9.85;100.00;101359.84;4934784;29;20056;-83
2022/09/24 04:20:47;;;;;;;4.18;1.20;;;;;;;9.95;100.00;101376.16;4934865;29;20070;-84
2022/09/24 04:23:14;;;;;;;5.63;1.38;;;;;;;9.76;100.00;101341.78;4934553;29;20056;-84
2022/09/24 04:25:41;;;;;;;3.45;1.08;;;;;;;9.92;100.00;101371.88;4933712;29;20043;-84
2022/09/24 04:28:08;;;;;;;3.88;1.13;;;;;;;9.71;100.00;101339.25;4940525;29;20050;-84
2022/09/24 04:30:37;;;;;;;2.20;1.20;;;;;;;10.07;100.00;101404.63;4934677;29;20115;-84
2022/09/24 04:33:04;;;;;;;2.15;0.95;;;;;;;9.87;100.00;101379.81;4950745;29;20059;-84
2022/09/24 04:35:34;;;;;;;3.45;1.10;;;;;;;9.92;100.00;101387.56;4934920;29;20059;-84
2022/09/24 04:38:03;;;;;;;3.38;1.08;;;;;;;10.05;100.00;101398.59;4933654;29;20055;-84
2022/09/24 04:40:31;;;;;;;2.75;1.00;;;;;;;9.95;100.00;101386.63;4946883;29;20435;-84
2022/09/24 04:42:58;;;;;;;3.33;1.35;;;;;;;9.98;100.00;101397.88;4933999;29;20062;-84
2022/09/24 04:45:25;;;;;;;3.17;1.15;;;;;;;9.81;100.00;101386.94;4934138;29;20048;-84
2022/09/24 04:47:56;;;;;;;2.13;0.90;;;;;;;9.78;100.00;101389.66;4934391;29;20095;-84
2022/09/24 04:50:27;;;;;;;3.75;1.00;;;;;;;9.86;100.00;101412.13;4934433;29;20594;-84
2022/09/24 04:52:54;;;;;;;7.82;1.27;;;;;;;9.83;100.00;101419.19;4933437;29;20052;-84
2022/09/24 04:55:22;;;;;;;3.33;1.05;;;;;;;9.64;100.00;101392.59;4934379;29;20055;-84
2022/09/24 04:57:49;;;;;;;2.67;1.05;;;;;;;9.70;100.00;101429.06;4947707;29;20052;-84
2022/09/24 05:00:19;;;;;;;2.45;0.90;;;;;;;9.64;100.00;101413.53;4933864;29;20130;-84
2022/09/24 05:02:54;;;;;;;6.05;1.20;;;;;;;9.54;100.00;101401.53;4935607;29;20398;-84
2022/09/24 05:05:21;;;;;;;3.38;1.52;;;;;;;9.63;100.00;101420.50;4937119;29;20044;-84
2022/09/24 05:07:48;;;;;;;2.05;0.90;;;;;;;9.73;100.00;101408.06;4933875;29;20059;-84
2022/09/24 05:10:15;;;;;;;2.38;1.10;;;;;;;9.57;100.00;101409.31;4934444;29;20106;-84
2022/09/24 05:12:41;;;;;;;2.30;1.05;;;;;;;9.74;100.00;101419.38;4934263;29;20060;-83
2022/09/24 05:15:08;;;;;;;2.33;0.98;;;;;;;9.89;100.00;101426.88;4933260;29;20475;-83
2022/09/24 05:17:39;;;;;;;5.47;1.30;;;;;;;9.53;100.00;101423.38;4935542;29;20051;-82
2022/09/24 05:20:07;;;;;;;3.33;1.10;;;;;;;9.30;100.00;101404.66;4934466;29;20406;-83
2022/09/24 05:22:35;;;;;;;5.60;1.23;;;;;;;9.45;100.00;101426.13;4933277;29;20110;-83
2022/09/24 05:25:02;;;;;;;2.08;1.20;;;;;;;9.57;100.00;101427.63;4933685;29;20070;-83
2022/09/24 05:27:29;;;;;;;4.78;1.35;;;;;;;9.48;100.00;101429.53;4925993;29;20047;-83
2022/09/24 05:29:56;;;;;;;2.60;1.10;;;;;;;9.31;100.00;101400.28;4933870;29;20056;-83
2022/09/24 05:32:22;;;;;;;3.80;1.02;;;;;;;9.14;100.00;101374.53;4933471;29;20062;-84
2022/09/24 05:34:49;;;;;;;3.42;1.15;;;;;;;9.42;100.00;101415.72;4934554;29;20107;-83
2022/09/24 05:37:17;;;;;;;5.75;1.30;;;;;;;9.73;100.00;101438.59;4933015;29;20047;-83
2022/09/24 05:39:43;;;;;;;4.38;1.20;;;;;;;9.48;100.00;101397.31;4934894;29;20103;-83
2022/09/24 05:42:13;;;;;;;3.35;1.10;;;;;;;9.75;100.00;101449.88;4932257;29;20047;-84
2022/09/24 05:44:42;;;;;;;3.95;1.20;;;;;;;9.57;100.00;101438.94;4925597;29;20075;-83
2022/09/24 05:47:14;;;;;;;3.80;1.38;;;;;;;9.45;100.00;101433.97;4926604;29;20079;-83
2022/09/24 05:49:41;;;;;;;4.72;1.17;;;;;;;9.52;100.00;101434.72;4932285;29;20064;-84
2022/09/24 05:52:08;;;;;;;4.07;1.33;;;;;;;9.59;100.00;101451.97;4927398;29;20052;-83
2022/09/24 05:54:35;;;;;;;3.50;1.23;;;;;;;9.58;100.00;101445.00;4929652;29;20052;-84
2022/09/24 05:57:02;;;;;;;8.82;1.25;;;;;;;9.58;100.00;101434.56;4925783;29;20051;-88
2022/09/24 05:59:29;;;;;;;2.80;1.00;;;;;;;9.62;100.00;101431.84;4927374;29;20103;-88
2022/09/24 06:01:55;;;;;;;3.20;1.20;;;;;;;9.66;100.00;101436.09;4926613;29;20075;-88
2022/09/24 06:04:22;;;;;;;6.30;1.88;;;;;;;9.44;100.00;101425.28;4926159;29;20043;-87
2022/09/24 06:06:49;;;;;;;6.13;1.30;;;;;;;9.62;100.00;101424.00;4928535;29;20059;-88
2022/09/24 06:09:15;;;;;;;3.65;1.20;;;;;;;9.75;100.00;101421.97;4926543;29;20047;-88
2022/09/24 06:11:43;;;;;;;5.25;1.52;;;;;;;9.63;100.00;101402.22;4943206;29;20047;-88
2022/09/24 06:14:10;;;;;;;5.28;1.50;;;;;;;10.10;100.00;101442.97;4924619;29;20099;-88
2022/09/24 06:16:36;;;;;;;5.15;1.25;;;;;;;9.89;100.00;101427.72;4933618;29;20073;-87
2022/09/24 06:19:03;;;;;;;4.30;1.38;;;;;;;9.94;100.00;101448.56;4937535;29;20075;-87
2022/09/24 06:21:30;;;;;;;7.82;1.63;;;;;;;9.92;100.00;101449.50;4933583;29;20047;-88
2022/09/24 06:23:57;;;;;;;5.85;1.38;;;;;;;10.09;100.00;101439.47;4932542;29;20474;-88
2022/09/24 06:26:25;;;;;;;5.45;1.10;;;;;;;10.17;100.00;101408.75;4936635;29;20047;-87
2022/09/24 06:28:52;;;;;;;7.55;1.52;;;;;;;10.19;100.00;101434.88;4939242;29;20059;-88
2022/09/24 06:31:19;;;;;;;7.18;1.23;;;;;;;10.57;100.00;101482.81;4942388;29;20048;-87
2022/09/24 06:33:46;;;;;;;5.45;1.35;;;;;;;10.16;100.00;101430.56;4947396;29;20056;-88
2022/09/24 06:36:13;;;;;;;6.68;1.38;;;;;;;10.39;100.00;101465.81;4949910;28;20047;-89
2022/09/24 06:38:40;;;;;;;3.85;1.13;;;;;;;10.43;100.00;101459.63;4943260;29;20048;-87
2022/09/24 06:41:08;;;;;;;6.03;1.40;;;;;;;10.36;100.00;101434.50;4942771;29;20048;-88
2022/09/24 06:43:36;;;;;;;4.47;1.23;;;;;;;10.72;100.00;101463.25;4944782;29;20055;-89
2022/09/24 06:46:03;;;;;;;3.88;1.10;;;;;;;10.80;100.00;101517.16;4942354;29;20040;-89
2022/09/24 06:48:31;;;;;;;5.20;1.27;;;;;;;10.91;100.00;101508.16;4965102;28;20139;-88
2022/09/24 06:50:58;;;;;;;3.33;1.17;;;;;;;10.67;100.00;101475.59;4958759;29;20052;-87
2022/09/24 06:53:25;;;;;;;3.25;1.00;;;;;;;10.57;100.00;101495.91;4944682;29;20051;-88
2022/09/24 06:55:57;;;;;;;4.93;1.10;;;;;;;10.87;100.00;101527.44;4943285;29;20130;-88
2022/09/24 06:58:25;;;;;;;4.82;1.17;;;;;;;10.73;100.00;101472.81;4943471;29;20047;-88
2022/09/24 07:00:57;;;;;;;7.60;1.20;;;;;;;10.96;100.00;101507.13;4941964;29;20042;-88
2022/09/24 07:03:26;;;;;;;5.20;1.55;;;;;;;11.98;100.00;101529.59;4950658;29;20043;-88
2022/09/24 07:05:53;;;;;;;2.47;1.02;;;;;;;12.61;100.00;101486.41;4949629;29;20064;-86
2022/09/24 07:08:21;;;;;;;4.45;1.15;;;;;;;12.99;100.00;101475.47;4949104;28;20055;-88
2022/09/24 07:10:48;;;;;;;4.85;1.10;;;;;;;13.79;100.00;101491.78;4946496;29;20071;-88
2022/09/24 07:13:15;;;;;;;5.15;1.08;;;;;;;13.54;100.00;101483.97;4942293;29;20063;-88
2022/09/24 07:15:43;;;;;;;4.95;1.00;;;;;;;13.93;100.00;101485.97;4942953;29;20054;-88
2022/09/24 07:18:11;;;;;;;1.50;0.80;;;;;;;14.04;100.00;101488.16;4946003;29;20099;-85
2022/09/24 07:20:38;;;;;;;2.90;0.80;;;;;;;14.56;100.00;101516.81;4955475;29;20058;-89
2022/09/24 07:23:11;;;;;;;5.78;1.10;;;;;;;14.44;100.00;101492.66;4944905;29;20058;-88
2022/09/24 07:25:38;;;;;;;3.83;1.08;;;;;;;15.02;100.00;101524.56;4944612;29;20048;-87
2022/09/24 07:28:08;;;;;;;4.97;1.33;;;;;;;15.21;100.00;101511.41;4941121;29;20071;-88
2022/09/24 07:30:36;;;;;;;6.00;1.38;;;;;;;14.41;100.00;101457.69;4947429;29;20074;-90
2022/09/24 07:33:08;;;;;;;3.88;1.02;;;;;;;14.65;100.00;101520.88;4955809;28;20446;-89
2022/09/24 07:35:39;;;;;;;2.92;1.10;;;;;;;13.83;100.00;101469.69;4947265;29;20083;-88
2022/09/24 07:38:11;;;;;;;4.32;1.00;;;;;;;13.54;100.00;101462.91;4948229;29;20059;-88
2022/09/24 07:40:38;;;;;;;5.00;1.17;;;;;;;14.12;100.00;101472.06;4945581;29;20056;-88
2022/09/24 07:43:11;;;;;;;5.03;0.90;;;;;;;14.27;100.00;101478.47;4943818;29;20410;-88
2022/09/24 07:45:38;;;;;;;2.42;0.88;;;;;;;13.77;100.00;101476.97;4944341;29;20051;-89
2022/09/24 07:48:05;;;;;;;4.40;1.38;;;;;;;13.69;100.00;101532.53;4945653;29;20063;-88
2022/09/24 07:50:37;;;;;;;4.38;1.10;;;;;;;14.14;100.00;101501.84;4948302;29;20043;-89
2022/09/24 07:53:05;;;;;;;5.57;1.35;;;;;;;13.56;100.00;101461.06;4953854;29;20046;-88
2022/09/24 07:55:38;;;;;;;2.65;0.80;;;;;;;13.86;100.00;101506.44;4952630;29;20052;-86
2022/09/24 07:58:10;;;;;;;2.88;0.95;;;;;;;13.97;100.00;101489.31;4943168;29;20118;-88
2022/09/24 08:00:37;;;;;;;5.32;1.00;;;;;;;14.11;100.00;101523.00;4946855;29;20067;-86
2022/09/24 08:03:05;;;;;;;5.20;1.13;;;;;;;14.07;100.00;101540.72;4947070;29;20055;-88
2022/09/24 08:05:32;;;;;;;3.95;1.10;;;;;;;13.48;100.00;101495.59;4942211;29;20047;-89
2022/09/24 08:07:59;;;;;;;2.95;1.08;;;;;;;13.79;100.00;101549.69;4936056;29;20063;-86
2022/09/24 08:10:27;;;;;;;5.32;1.10;;;;;;;13.91;100.00;101519.41;4936694;29;20052;-86
2022/09/24 08:12:56;;;;;;;4.57;1.20;;;;;;;13.76;100.00;101505.06;4943499;29;20059;-86
2022/09/24 08:15:22;;;;;;;5.75;1.45;;;;;;;13.95;100.00;101521.00;4937488;29;20051;-86
2022/09/24 08:17:50;;;;;;;4.05;1.00;;;;;;;13.86;100.00;101480.09;4943228;29;20059;-86
2022/09/24 08:20:17;;;;;;;5.00;1.13;;;;;;;14.31;100.00;101524.88;4940144;29;20063;-86
2022/09/24 08:22:44;;;;;;;8.20;1.15;;;;;;;13.89;100.00;101494.91;4934698;29;20051;-86
2022/09/24 08:25:10;;;;;;;5.88;1.10;;;;;;;13.86;100.00;101510.81;4936168;29;20452;-86
2022/09/24 08:27:37;;;;;;;5.65;0.93;;;;;;;14.23;100.00;101544.44;4935284;29;20058;-86
2022/09/24 08:30:05;;;;;;;6.95;1.35;;;;;;;14.99;100.00;101547.47;4934434;29;20505;-86
2022/09/24 08:32:32;;;;;;;4.30;1.08;;;;;;;15.30;100.00;101553.22;4934466;29;20051;-86
2022/09/24 08:34:59;;;;;;;5.47;1.30;;;;;;;15.18;100.00;101530.88;4935906;29;20047;-86
2022/09/24 08:37:28;;;;;;;5.30;1.17;;;;;;;15.19;100.00;101575.66;4935809;29;20051;-86
2022/09/24 08:39:55;;;;;;;4.50;1.10;;;;;;;15.50;100.00;101576.06;4939246;29;20064;-86
2022/09/24 08:42:40;;;;;;;3.58;0.90;;;;;;;15.81;100.00;101590.53;4950314;29;20055;-87
2022/09/24 08:48:03;;;;;;;7.05;1.05;;;;;;;15.13;100.00;101581.19;4933052;29;20078;-86
2022/09/24 08:50:33;;;;;;;5.53;1.13;;;;;;;14.63;100.00;101576.28;4934419;29;20063;-85
2022/09/24 08:53:14;;;;;;;4.93;1.20;;;;;;;14.90;100.00;101591.84;4934784;29;20070;-86
2022/09/24 08:55:51;;;;;;;3.10;1.00;;;;;;;15.51;100.00;101585.69;4935773;29;20103;-86
2022/09/24 08:59:00;;;;;;;2.85;0.93;;;;;;;14.90;100.00;101587.44;4937346;29;20070;-86
2022/09/24 09:01:55;;;;;;;2.65;0.90;;;;;;;14.70;100.00;101596.19;4932716;29;20044;-86
2022/09/24 09:04:31;;;;;;;3.97;1.00;;;;;;;15.08;100.00;101591.06;4929778;29;20110;-86
2022/09/24 09:07:16;;;;;;;3.75;1.10;;;;;;;15.20;100.00;101589.69;4942369;29;20102;-85
2022/09/24 09:10:00;;;;;;;6.00;1.35;;;;;;;14.28;100.00;101617.19;4939144;29;20123;-86
2022/09/24 09:12:34;;;;;;;5.93;1.20;;;;;;;15.05;100.00;101619.34;4932584;29;20048;-85
2022/09/24 09:15:11;;;;;;;6.32;1.40;;;;;;;14.51;100.00;101605.72;4932995;29;20059;-86
2022/09/24 09:17:53;;;;;;;2.90;1.00;;;;;;;14.41;100.00;101624.53;4930999;29;20079;-85
2022/09/24 09:20:34;;;;;;;7.18;1.73;;;;;;;14.77;100.00;101620.53;4931769;29;20414;-86
2022/09/24 09:23:59;;;;;;;4.90;1.33;;;;;;;14.72;100.00;101612.78;4927614;29;20055;-85
2022/09/24 09:26:26;;;;;;;4.18;1.08;;;;;;;14.83;100.00;101609.72;4912252;29;20060;-89
2022/09/24 09:28:58;;;;;;;3.53;0.98;;;;;;;14.87;100.00;101636.81;4931147;29;20470;-85
2022/09/24 09:31:37;;;;;;;4.65;1.15;;;;;;;14.65;100.00;101634.19;4932604;29;20107;-86
2022/09/24 09:34:36;;;;;;;6.68;1.15;;;;;;;14.81;100.00;101628.22;4933001;29;20061;-89
2022/09/24 09:37:12;;;;;;;3.45;1.02;;;;;;;14.55;100.00;101644.19;4929934;29;20051;-90
2022/09/24 09:39:52;;;;;;;4.20;1.00;;;;;;;14.19;100.00;101647.38;4935871;29;20075;-89
2022/09/24 09:42:26;;;;;;;3.97;0.98;;;;;;;14.80;100.00;101655.53;4928834;29;20055;-90
2022/09/24 09:44:53;;;;;;;5.93;1.10;;;;;;;14.44;100.00;101627.03;4934271;29;20562;-90
2022/09/24 09:48:11;;;;;;;3.38;1.00;;;;;;;15.08;100.00;101635.06;4931575;29;20100;-89
2022/09/24 09:50:48;;;;;;;6.57;1.10;;;;;;;15.13;100.00;101635.72;4925882;29;20067;-89
2022/09/24 09:53:20;;;;;;;6.07;1.95;;;;;;;15.18;100.00;101655.69;4924841;29;20064;-86
2022/09/24 09:55:55;;;;;;;4.85;1.10;;;;;;;15.00;100.00;101657.34;4941196;29;20503;-86
2022/09/24 09:58:27;;;;;;;4.65;1.05;;;;;;;15.35;100.00;101646.19;4931758;29;20060;-86
2022/09/24 10:01:11;;;;;;;5.10;1.10;;;;;;;15.23;100.00;101652.88;4936718;28;20083;-87
2022/09/24 10:03:50;;;;;;;4.25;1.15;;;;;;;14.93;100.00;101655.88;4935381;29;20098;-88
2022/09/24 10:06:26;;;;;;;3.83;1.10;;;;;;;15.70;100.00;101649.94;4932787;29;20048;-88
2022/09/24 10:08:53;;;;;;;3.80;1.10;;;;;;;16.09;100.00;101629.72;4931557;29;20056;-89
2022/09/24 10:11:21;;;;;;;6.70;1.20;;;;;;;15.73;100.00;101657.72;4930797;29;20051;-88
2022/09/24 10:14:10;;;;;;;7.38;1.13;;;;;;;15.06;100.00;101652.72;4939103;29;20064;-89
2022/09/24 10:16:52;;;;;;;5.97;1.15;;;;;;;14.91;100.00;101612.91;4930457;29;20130;-88
2022/09/24 10:19:37;;;;;;;6.43;1.33;;;;;;;14.65;100.00;101610.47;4931059;29;20161;-88
2022/09/24 10:22:20;;;;;;;6.45;1.33;;;;;;;14.49;100.00;101650.56;4935482;29;20116;-88
2022/09/24 10:24:48;;;;;;;7.57;1.52;;;;;;;14.31;100.00;101602.09;4931817;29;20106;-88
2022/09/24 10:27:41;;;;;;;9.38;1.45;;;;;;;14.45;100.00;101654.25;4939137;29;20043;-87
2022/09/24 10:30:32;;;;;;;6.55;1.50;;;;;;;14.28;100.00;101618.03;4931094;29;20052;-88
2022/09/24 10:33:02;;;;;;;5.75;1.25;;;;;;;14.53;100.00;101612.63;4927651;29;20055;-87
2022/09/24 10:35:34;;;;;;;4.22;1.00;;;;;;;15.42;100.00;101634.44;4932296;29;20059;-86
2022/09/24 10:38:14;;;;;;;4.40;1.33;;;;;;;15.41;100.00;101637.19;4933187;29;20051;-87
2022/09/24 10:40:41;;;;;;;6.55;1.45;;;;;;;15.57;100.00;101611.81;4948128;29;20056;-89
2022/09/24 10:43:21;;;;;;;4.75;1.20;;;;;;;15.22;100.00;101608.94;4933110;29;20134;-90
2022/09/24 10:45:56;;;;;;;4.18;1.45;;;;;;;15.62;100.00;101646.78;4932648;29;20056;-91
2022/09/24 10:48:31;;;;;;;6.68;1.20;;;;;;;15.47;100.00;101650.94;4934074;29;20051;-90
2022/09/24 10:51:22;;;;;;;3.70;1.17;;;;;;;15.38;100.00;101609.13;4936005;29;20047;-89
2022/09/24 10:54:28;;;;;;;3.55;1.00;;;;;;;15.85;100.00;101644.94;4934643;29;20573;-91
2022/09/24 10:56:58;;;;;;;6.75;1.25;;;;;;;15.62;100.00;101632.75;4925754;29;20462;-91
2022/09/24 10:59:38;;;;;;;6.53;1.20;;;;;;;15.74;100.00;101648.91;4931748;29;20565;-90
2022/09/24 11:02:27;;;;;;;4.13;1.13;;;;;;;15.39;100.00;101642.53;4930241;29;20495;-91
2022/09/24 11:05:07;;;;;;;5.72;1.30;;;;;;;15.22;100.00;101637.97;4937168;29;20450;-91
2022/09/24 11:07:59;;;;;;;5.82;1.10;;;;;;;15.27;100.00;101635.97;4941052;28;20112;-91
2022/09/24 11:11:02;;;;;;;5.43;1.30;;;;;;;15.75;100.00;101644.50;4934379;29;20051;-92
2022/09/24 11:13:43;;;;;;;8.33;1.33;;;;;;;15.35;100.00;101639.16;4936367;29;20107;-92
2022/09/24 11:16:15;;;;;;;9.10;1.10;;;;;;;16.09;100.00;101662.28;4937737;29;20338;-92
2022/09/24 11:18:59;;;;;;;5.68;1.10;;;;;;;16.32;100.00;101649.78;4937389;29;20476;-92
2022/09/24 11:21:59;;;;;;;2.38;1.00;;;;;;;16.43;100.00;101654.56;4937340;29;20052;-92
2022/09/24 11:24:32;;;;;;;3.70;1.08;;;;;;;15.82;100.00;101659.13;4943285;29;20055;-91
2022/09/24 11:27:24;;;;;;;6.95;1.27;;;;;;;15.95;100.00;101622.44;4953426;29;20471;-92
2022/09/24 11:30:20;;;;;;;3.45;1.00;;;;;;;15.97;100.00;101657.59;4937291;29;20051;-91
2022/09/24 11:33:14;;;;;;;6.38;1.10;;;;;;;15.53;100.00;101626.09;4936687;29;20059;-92
2022/09/24 11:36:24;;;;;;;8.88;1.30;;;;;;;15.58;100.00;101658.38;4937958;29;20134;-92
2022/09/24 11:39:12;;;;;;;5.75;1.00;;;;;;;15.35;100.00;101668.19;4936692;29;20103;-91
2022/09/24 11:41:51;;;;;;;3.53;1.15;;;;;;;15.29;100.00;101663.16;4936305;29;20052;-92
2022/09/24 11:44:44;;;;;;;4.63;1.30;;;;;;;15.41;100.00;101658.28;4936875;29;20051;-92
2022/09/24 11:47:10;;;;;;;5.50;1.42;;;;;;;15.69;100.00;101658.78;4901068;29;20103;-93
2022/09/24 11:49:59;;;;;;;5.63;1.65;;;;;;;15.83;100.00;101659.97;4937293;29;20087;-92